sensor_id;sensor_type;location;lat;lon;timestamp;P1;durP1;ratioP1;P2;durP2;ratioP2
34571;SDS011;20808;48.974;8.452;2022-09-29T00:00:41;12.63;;;8.33;;
34571;SDS011;20808;48.974;8.452;2022-09-29T00:03:08;15.30;;;8.43;;
34571;SDS011;20808;48.974;8.452;2022-09-29T00:05:35;13.13;;;7.50;;
34571;SDS011;20808;48.974;8.452;2022-09-29T00:08:03;16.90;;;7.70;;
34571;SDS011;20808;48.974;8.452;2022-09-29T00:10:30;15.20;;;7.93;;
34571;SDS011;20808;48.974;8.452;2022-09-29T00:12:56;17.67;;;8.53;;
34571;SDS011;20808;48.974;8.452;2022-09-29T00:15:23;12.73;;;8.30;;
34571;SDS011;20808;48.974;8.452;2022-09-29T00:17:50;17.23;;;7.70;;
34571;SDS011;20808;48.974;8.452;2022-09-29T00:20:17;13.87;;;8.20;;
34571;SDS011;20808;48.974;8.452;2022-09-29T00:22:48;21.20;;;8.20;;
34571;SDS011;20808;48.974;8.452;2022-09-29T00:25:16;14.07;;;7.27;;
34571;SDS011;20808;48.974;8.452;2022-09-29T00:27:43;14.07;;;7.47;;
34571;SDS011;20808;48.974;8.452;2022-09-29T00:30:10;13.43;;;6.83;;
34571;SDS011;20808;48.974;8.452;2022-09-29T00:32:37;19.93;;;7.30;;
34571;SDS011;20808;48.974;8.452;2022-09-29T00:35:05;14.73;;;7.67;;
34571;SDS011;20808;48.974;8.452;2022-09-29T00:37:33;17.27;;;7.20;;
34571;SDS011;20808;48.974;8.452;2022-09-29T00:40:00;11.03;;;6.43;;
34571;SDS011;20808;48.974;8.452;2022-09-29T00:42:28;10.30;;;6.60;;
34571;SDS011;20808;48.974;8.452;2022-09-29T00:44:58;15.03;;;7.40;;
34571;SDS011;20808;48.974;8.452;2022-09-29T00:47:30;16.53;;;6.60;;
34571;SDS011;20808;48.974;8.452;2022-09-29T00:50:02;16.47;;;7.13;;
34571;SDS011;20808;48.974;8.452;2022-09-29T00:52:35;16.67;;;7.90;;
34571;SDS011;20808;48.974;8.452;2022-09-29T00:55:06;15.80;;;6.60;;
34571;SDS011;20808;48.974;8.452;2022-09-29T00:57:40;14.60;;;6.80;;
34571;SDS011;20808;48.974;8.452;2022-09-29T01:00:12;12.67;;;5.93;;
34571;SDS011;20808;48.974;8.452;2022-09-29T01:02:42;9.27;;;5.83;;
34571;SDS011;20808;48.974;8.452;2022-09-29T01:05:13;9.20;;;6.07;;
34571;SDS011;20808;48.974;8.452;2022-09-29T01:07:43;10.63;;;5.47;;
34571;SDS011;20808;48.974;8.452;2022-09-29T01:10:10;13.37;;;6.17;;
34571;SDS011;20808;48.974;8.452;2022-09-29T01:12:40;11.17;;;7.13;;
34571;SDS011;20808;48.974;8.452;2022-09-29T01:15:08;15.10;;;7.63;;
34571;SDS011;20808;48.974;8.452;2022-09-29T01:17:36;14.40;;;6.67;;
34571;SDS011;20808;48.974;8.452;2022-09-29T01:20:05;10.67;;;6.00;;
34571;SDS011;20808;48.974;8.452;2022-09-29T01:25:53;10.83;;;6.40;;
34571;SDS011;20808;48.974;8.452;2022-09-29T01:28:50;12.43;;;6.40;;
34571;SDS011;20808;48.974;8.452;2022-09-29T01:31:41;12.07;;;5.63;;
34571;SDS011;20808;48.974;8.452;2022-09-29T01:34:17;10.63;;;5.73;;
34571;SDS011;20808;48.974;8.452;2022-09-29T01:36:51;10.50;;;5.53;;
34571;SDS011;20808;48.974;8.452;2022-09-29T01:39:29;8.67;;;5.37;;
34571;SDS011;20808;48.974;8.452;2022-09-29T01:42:01;11.37;;;5.50;;
34571;SDS011;20808;48.974;8.452;2022-09-29T01:44:35;12.77;;;6.47;;
34571;SDS011;20808;48.974;8.452;2022-09-29T01:47:07;10.93;;;6.03;;
34571;SDS011;20808;48.974;8.452;2022-09-29T01:49:37;13.23;;;5.60;;
34571;SDS011;20808;48.974;8.452;2022-09-29T01:52:07;8.60;;;5.83;;
34571;SDS011;20808;48.974;8.452;2022-09-29T01:54:39;11.70;;;5.03;;
34571;SDS011;20808;48.974;8.452;2022-09-29T01:57:11;9.90;;;5.70;;
34571;SDS011;20808;48.974;8.452;2022-09-29T01:59:43;15.27;;;5.50;;
34571;SDS011;20808;48.974;8.452;2022-09-29T02:02:15;8.00;;;5.13;;
34571;SDS011;20808;48.974;8.452;2022-09-29T02:04:48;7.07;;;4.60;;
34571;SDS011;20808;48.974;8.452;2022-09-29T02:07:19;16.23;;;5.60;;
34571;SDS011;20808;48.974;8.452;2022-09-29T02:09:52;10.07;;;5.63;;
34571;SDS011;20808;48.974;8.452;2022-09-29T02:12:23;12.07;;;5.77;;
34571;SDS011;20808;48.974;8.452;2022-09-29T02:14:54;11.60;;;5.70;;
34571;SDS011;20808;48.974;8.452;2022-09-29T02:17:23;10.93;;;5.87;;
34571;SDS011;20808;48.974;8.452;2022-09-29T02:19:55;11.93;;;6.57;;
34571;SDS011;20808;48.974;8.452;2022-09-29T02:22:22;10.73;;;6.53;;
34571;SDS011;20808;48.974;8.452;2022-09-29T02:24:49;9.13;;;5.97;;
34571;SDS011;20808;48.974;8.452;2022-09-29T02:27:20;13.50;;;6.60;;
34571;SDS011;20808;48.974;8.452;2022-09-29T02:29:48;10.27;;;6.27;;
34571;SDS011;20808;48.974;8.452;2022-09-29T02:32:16;13.20;;;6.80;;
34571;SDS011;20808;48.974;8.452;2022-09-29T02:34:45;12.93;;;6.37;;
34571;SDS011;20808;48.974;8.452;2022-09-29T02:37:24;18.43;;;7.50;;
34571;SDS011;20808;48.974;8.452;2022-09-29T02:40:09;14.23;;;6.93;;
34571;SDS011;20808;48.974;8.452;2022-09-29T02:42:46;11.30;;;7.47;;
34571;SDS011;20808;48.974;8.452;2022-09-29T02:45:27;9.90;;;6.43;;
34571;SDS011;20808;48.974;8.452;2022-09-29T02:48:05;12.37;;;7.43;;
34571;SDS011;20808;48.974;8.452;2022-09-29T02:50:45;14.40;;;6.43;;
34571;SDS011;20808;48.974;8.452;2022-09-29T02:53:22;10.20;;;6.27;;
34571;SDS011;20808;48.974;8.452;2022-09-29T02:55:58;13.23;;;6.87;;
34571;SDS011;20808;48.974;8.452;2022-09-29T02:58:33;10.93;;;5.83;;
34571;SDS011;20808;48.974;8.452;2022-09-29T03:01:05;15.00;;;7.50;;
34571;SDS011;20808;48.974;8.452;2022-09-29T03:03:33;16.00;;;6.83;;
34571;SDS011;20808;48.974;8.452;2022-09-29T03:06:01;12.53;;;6.67;;
34571;SDS011;20808;48.974;8.452;2022-09-29T03:08:28;11.90;;;6.07;;
34571;SDS011;20808;48.974;8.452;2022-09-29T03:10:56;11.83;;;6.27;;
34571;SDS011;20808;48.974;8.452;2022-09-29T03:13:23;13.47;;;6.90;;
34571;SDS011;20808;48.974;8.452;2022-09-29T03:15:50;9.33;;;5.80;;
34571;SDS011;20808;48.974;8.452;2022-09-29T03:18:16;6.97;;;4.67;;
34571;SDS011;20808;48.974;8.452;2022-09-29T03:20:43;10.87;;;5.23;;
34571;SDS011;20808;48.974;8.452;2022-09-29T03:23:12;6.70;;;4.70;;
34571;SDS011;20808;48.974;8.452;2022-09-29T03:25:38;8.50;;;5.20;;
34571;SDS011;20808;48.974;8.452;2022-09-29T03:28:07;14.30;;;5.43;;
34571;SDS011;20808;48.974;8.452;2022-09-29T03:30:33;8.63;;;4.93;;
34571;SDS011;20808;48.974;8.452;2022-09-29T03:33:00;8.47;;;5.50;;
34571;SDS011;20808;48.974;8.452;2022-09-29T03:35:27;11.00;;;5.83;;
34571;SDS011;20808;48.974;8.452;2022-09-29T03:37:55;10.50;;;5.30;;
34571;SDS011;20808;48.974;8.452;2022-09-29T03:40:25;7.13;;;5.20;;
34571;SDS011;20808;48.974;8.452;2022-09-29T03:42:52;11.10;;;6.20;;
34571;SDS011;20808;48.974;8.452;2022-09-29T03:45:19;15.73;;;6.83;;
34571;SDS011;20808;48.974;8.452;2022-09-29T03:47:46;13.97;;;6.37;;
34571;SDS011;20808;48.974;8.452;2022-09-29T03:50:12;8.47;;;5.07;;
34571;SDS011;20808;48.974;8.452;2022-09-29T03:52:39;14.00;;;5.40;;
34571;SDS011;20808;48.974;8.452;2022-09-29T03:55:06;6.50;;;5.10;;
34571;SDS011;20808;48.974;8.452;2022-09-29T03:57:35;10.00;;;6.10;;
34571;SDS011;20808;48.974;8.452;2022-09-29T04:00:02;9.47;;;5.20;;
34571;SDS011;20808;48.974;8.452;2022-09-29T04:02:30;7.50;;;5.13;;
34571;SDS011;20808;48.974;8.452;2022-09-29T04:04:58;7.07;;;5.20;;
34571;SDS011;20808;48.974;8.452;2022-09-29T04:07:25;11.27;;;5.20;;
34571;SDS011;20808;48.974;8.452;2022-09-29T04:09:52;8.50;;;5.47;;
34571;SDS011;20808;48.974;8.452;2022-09-29T04:12:18;9.27;;;5.43;;
34571;SDS011;20808;48.974;8.452;2022-09-29T04:14:47;9.67;;;5.37;;
34571;SDS011;20808;48.974;8.452;2022-09-29T04:17:13;6.90;;;4.37;;
34571;SDS011;20808;48.974;8.452;2022-09-29T04:19:40;12.10;;;6.33;;
34571;SDS011;20808;48.974;8.452;2022-09-29T04:22:07;58.00;;;16.73;;
34571;SDS011;20808;48.974;8.452;2022-09-29T04:24:35;36.77;;;13.73;;
34571;SDS011;20808;48.974;8.452;2022-09-29T04:27:02;44.63;;;14.20;;
34571;SDS011;20808;48.974;8.452;2022-09-29T04:29:29;52.53;;;16.87;;
34571;SDS011;20808;48.974;8.452;2022-09-29T04:31:57;37.33;;;11.50;;
34571;SDS011;20808;48.974;8.452;2022-09-29T04:34:24;18.90;;;7.70;;
34571;SDS011;20808;48.974;8.452;2022-09-29T04:36:51;12.93;;;6.27;;
34571;SDS011;20808;48.974;8.452;2022-09-29T04:39:18;11.50;;;6.23;;
34571;SDS011;20808;48.974;8.452;2022-09-29T04:41:45;8.37;;;5.40;;
34571;SDS011;20808;48.974;8.452;2022-09-29T04:44:12;9.20;;;5.10;;
34571;SDS011;20808;48.974;8.452;2022-09-29T04:46:38;16.63;;;8.00;;
34571;SDS011;20808;48.974;8.452;2022-09-29T04:49:06;19.87;;;8.70;;
34571;SDS011;20808;48.974;8.452;2022-09-29T04:51:33;18.33;;;7.93;;
34571;SDS011;20808;48.974;8.452;2022-09-29T04:54:00;25.73;;;10.40;;
34571;SDS011;20808;48.974;8.452;2022-09-29T04:56:27;26.00;;;10.57;;
34571;SDS011;20808;48.974;8.452;2022-09-29T04:58:55;19.67;;;11.30;;
34571;SDS011;20808;48.974;8.452;2022-09-29T05:01:23;21.63;;;9.37;;
34571;SDS011;20808;48.974;8.452;2022-09-29T05:03:50;14.27;;;8.60;;
34571;SDS011;20808;48.974;8.452;2022-09-29T05:06:18;18.67;;;8.63;;
34571;SDS011;20808;48.974;8.452;2022-09-29T05:08:45;14.30;;;8.33;;
34571;SDS011;20808;48.974;8.452;2022-09-29T05:11:12;17.03;;;8.80;;
34571;SDS011;20808;48.974;8.452;2022-09-29T05:13:39;17.17;;;9.50;;
34571;SDS011;20808;48.974;8.452;2022-09-29T05:16:06;19.00;;;8.80;;
34571;SDS011;20808;48.974;8.452;2022-09-29T05:18:33;14.50;;;7.80;;
34571;SDS011;20808;48.974;8.452;2022-09-29T05:21:03;13.20;;;7.60;;
34571;SDS011;20808;48.974;8.452;2022-09-29T05:23:31;18.30;;;8.33;;
34571;SDS011;20808;48.974;8.452;2022-09-29T05:26:02;20.93;;;10.70;;
34571;SDS011;20808;48.974;8.452;2022-09-29T05:28:29;22.97;;;8.57;;
34571;SDS011;20808;48.974;8.452;2022-09-29T05:30:59;21.03;;;10.47;;
34571;SDS011;20808;48.974;8.452;2022-09-29T05:33:27;13.77;;;8.77;;
34571;SDS011;20808;48.974;8.452;2022-09-29T05:35:54;17.40;;;6.10;;
34571;SDS011;20808;48.974;8.452;2022-09-29T05:38:21;10.73;;;6.60;;
34571;SDS011;20808;48.974;8.452;2022-09-29T05:40:50;10.07;;;6.23;;
34571;SDS011;20808;48.974;8.452;2022-09-29T05:43:17;14.20;;;6.87;;
34571;SDS011;20808;48.974;8.452;2022-09-29T05:45:44;17.67;;;7.40;;
34571;SDS011;20808;48.974;8.452;2022-09-29T05:48:10;13.40;;;7.63;;
34571;SDS011;20808;48.974;8.452;2022-09-29T05:50:37;15.17;;;7.57;;
34571;SDS011;20808;48.974;8.452;2022-09-29T05:53:07;14.87;;;8.37;;
34571;SDS011;20808;48.974;8.452;2022-09-29T05:55:34;11.73;;;7.23;;
34571;SDS011;20808;48.974;8.452;2022-09-29T05:58:03;17.30;;;9.80;;
34571;SDS011;20808;48.974;8.452;2022-09-29T06:00:30;14.50;;;7.80;;
34571;SDS011;20808;48.974;8.452;2022-09-29T06:02:59;12.30;;;6.50;;
34571;SDS011;20808;48.974;8.452;2022-09-29T06:05:26;12.03;;;5.77;;
34571;SDS011;20808;48.974;8.452;2022-09-29T06:07:54;11.00;;;6.40;;
34571;SDS011;20808;48.974;8.452;2022-09-29T06:10:20;8.03;;;5.30;;
34571;SDS011;20808;48.974;8.452;2022-09-29T06:12:47;11.53;;;5.93;;
34571;SDS011;20808;48.974;8.452;2022-09-29T06:15:16;11.53;;;6.80;;
34571;SDS011;20808;48.974;8.452;2022-09-29T06:17:43;16.90;;;9.00;;
34571;SDS011;20808;48.974;8.452;2022-09-29T06:20:10;14.63;;;7.10;;
34571;SDS011;20808;48.974;8.452;2022-09-29T06:22:37;10.20;;;6.50;;
34571;SDS011;20808;48.974;8.452;2022-09-29T06:25:04;13.57;;;6.70;;
34571;SDS011;20808;48.974;8.452;2022-09-29T06:27:31;11.27;;;6.70;;
34571;SDS011;20808;48.974;8.452;2022-09-29T06:29:58;8.50;;;6.20;;
34571;SDS011;20808;48.974;8.452;2022-09-29T06:32:26;13.00;;;6.70;;
34571;SDS011;20808;48.974;8.452;2022-09-29T06:34:53;9.53;;;6.57;;
34571;SDS011;20808;48.974;8.452;2022-09-29T06:37:38;13.13;;;6.47;;
34571;SDS011;20808;48.974;8.452;2022-09-29T06:40:11;13.93;;;7.00;;
34571;SDS011;20808;48.974;8.452;2022-09-29T06:42:38;13.40;;;6.90;;
34571;SDS011;20808;48.974;8.452;2022-09-29T06:45:05;10.37;;;6.03;;
34571;SDS011;20808;48.974;8.452;2022-09-29T06:47:35;11.77;;;6.77;;
34571;SDS011;20808;48.974;8.452;2022-09-29T06:50:02;13.40;;;7.60;;
34571;SDS011;20808;48.974;8.452;2022-09-29T06:52:29;8.90;;;5.53;;
34571;SDS011;20808;48.974;8.452;2022-09-29T06:54:55;11.60;;;6.30;;
34571;SDS011;20808;48.974;8.452;2022-09-29T06:57:22;8.80;;;6.20;;
34571;SDS011;20808;48.974;8.452;2022-09-29T06:59:50;13.23;;;6.70;;
34571;SDS011;20808;48.974;8.452;2022-09-29T07:02:16;9.13;;;6.20;;
34571;SDS011;20808;48.974;8.452;2022-09-29T07:04:45;10.47;;;5.90;;
34571;SDS011;20808;48.974;8.452;2022-09-29T07:07:12;9.17;;;6.67;;
34571;SDS011;20808;48.974;8.452;2022-09-29T07:09:39;13.10;;;7.30;;
34571;SDS011;20808;48.974;8.452;2022-09-29T07:12:06;12.67;;;7.70;;
34571;SDS011;20808;48.974;8.452;2022-09-29T07:14:35;11.80;;;7.17;;
34571;SDS011;20808;48.974;8.452;2022-09-29T07:17:02;8.33;;;6.30;;
34571;SDS011;20808;48.974;8.452;2022-09-29T07:19:29;9.00;;;6.33;;
34571;SDS011;20808;48.974;8.452;2022-09-29T07:21:58;13.20;;;7.00;;
34571;SDS011;20808;48.974;8.452;2022-09-29T07:24:24;9.13;;;6.30;;
34571;SDS011;20808;48.974;8.452;2022-09-29T07:26:51;9.43;;;5.20;;
34571;SDS011;20808;48.974;8.452;2022-09-29T07:29:18;9.20;;;6.17;;
34571;SDS011;20808;48.974;8.452;2022-09-29T07:31:45;11.23;;;5.70;;
34571;SDS011;20808;48.974;8.452;2022-09-29T07:34:15;10.03;;;5.90;;
34571;SDS011;20808;48.974;8.452;2022-09-29T07:36:42;8.43;;;5.40;;
34571;SDS011;20808;48.974;8.452;2022-09-29T07:39:12;9.33;;;4.83;;
34571;SDS011;20808;48.974;8.452;2022-09-29T07:41:39;7.23;;;5.37;;
34571;SDS011;20808;48.974;8.452;2022-09-29T07:44:06;7.60;;;4.50;;
34571;SDS011;20808;48.974;8.452;2022-09-29T07:46:33;10.70;;;4.90;;
34571;SDS011;20808;48.974;8.452;2022-09-29T07:48:59;6.40;;;4.30;;
34571;SDS011;20808;48.974;8.452;2022-09-29T07:51:26;6.37;;;3.80;;
34571;SDS011;20808;48.974;8.452;2022-09-29T07:53:53;4.87;;;3.70;;
34571;SDS011;20808;48.974;8.452;2022-09-29T07:56:21;7.63;;;4.70;;
34571;SDS011;20808;48.974;8.452;2022-09-29T07:58:49;5.90;;;3.83;;
34571;SDS011;20808;48.974;8.452;2022-09-29T08:01:17;4.37;;;3.20;;
34571;SDS011;20808;48.974;8.452;2022-09-29T08:03:48;7.50;;;3.80;;
34571;SDS011;20808;48.974;8.452;2022-09-29T08:06:16;5.50;;;3.07;;
34571;SDS011;20808;48.974;8.452;2022-09-29T08:08:43;5.90;;;3.17;;
34571;SDS011;20808;48.974;8.452;2022-09-29T08:11:11;5.90;;;3.77;;
34571;SDS011;20808;48.974;8.452;2022-09-29T08:13:41;4.53;;;3.67;;
34571;SDS011;20808;48.974;8.452;2022-09-29T08:16:10;8.80;;;4.10;;
34571;SDS011;20808;48.974;8.452;2022-09-29T08:18:39;5.33;;;4.80;;
34571;SDS011;20808;48.974;8.452;2022-09-29T08:21:06;7.60;;;3.73;;
34571;SDS011;20808;48.974;8.452;2022-09-29T08:23:34;6.37;;;3.73;;
34571;SDS011;20808;48.974;8.452;2022-09-29T08:26:02;5.00;;;3.20;;
34571;SDS011;20808;48.974;8.452;2022-09-29T08:28:31;6.20;;;3.70;;
34571;SDS011;20808;48.974;8.452;2022-09-29T08:31:01;9.43;;;4.10;;
34571;SDS011;20808;48.974;8.452;2022-09-29T08:33:29;4.20;;;3.03;;
34571;SDS011;20808;48.974;8.452;2022-09-29T08:35:56;6.00;;;3.80;;
34571;SDS011;20808;48.974;8.452;2022-09-29T08:38:24;6.10;;;2.90;;
34571;SDS011;20808;48.974;8.452;2022-09-29T08:40:52;5.33;;;2.90;;
34571;SDS011;20808;48.974;8.452;2022-09-29T08:43:22;5.10;;;3.43;;
34571;SDS011;20808;48.974;8.452;2022-09-29T08:45:55;8.20;;;5.40;;
34571;SDS011;20808;48.974;8.452;2022-09-29T08:48:30;3.50;;;3.00;;
34571;SDS011;20808;48.974;8.452;2022-09-29T08:51:01;4.43;;;2.90;;
34571;SDS011;20808;48.974;8.452;2022-09-29T08:53:31;4.80;;;3.27;;
34571;SDS011;20808;48.974;8.452;2022-09-29T08:56:02;6.83;;;3.17;;
34571;SDS011;20808;48.974;8.452;2022-09-29T08:58:30;8.53;;;4.80;;
34571;SDS011;20808;48.974;8.452;2022-09-29T09:01:02;4.73;;;3.67;;
34571;SDS011;20808;48.974;8.452;2022-09-29T09:03:47;5.07;;;3.20;;
34571;SDS011;20808;48.974;8.452;2022-09-29T09:06:24;5.50;;;3.43;;
34571;SDS011;20808;48.974;8.452;2022-09-29T09:08:58;6.50;;;4.43;;
34571;SDS011;20808;48.974;8.452;2022-09-29T09:11:36;5.30;;;3.70;;
34571;SDS011;20808;48.974;8.452;2022-09-29T09:14:33;9.83;;;3.80;;
34571;SDS011;20808;48.974;8.452;2022-09-29T09:17:15;6.47;;;3.27;;
34571;SDS011;20808;48.974;8.452;2022-09-29T09:19:59;4.70;;;3.30;;
34571;SDS011;20808;48.974;8.452;2022-09-29T09:22:41;5.27;;;4.70;;
34571;SDS011;20808;48.974;8.452;2022-09-29T09:25:18;6.80;;;3.70;;
34571;SDS011;20808;48.974;8.452;2022-09-29T09:27:51;8.27;;;3.70;;
34571;SDS011;20808;48.974;8.452;2022-09-29T09:30:28;5.80;;;3.93;;
34571;SDS011;20808;48.974;8.452;2022-09-29T09:33:01;10.60;;;4.80;;
34571;SDS011;20808;48.974;8.452;2022-09-29T09:35:35;4.10;;;3.40;;
34571;SDS011;20808;48.974;8.452;2022-09-29T09:38:08;4.83;;;3.37;;
34571;SDS011;20808;48.974;8.452;2022-09-29T09:40:41;7.03;;;3.33;;
34571;SDS011;20808;48.974;8.452;2022-09-29T09:43:11;7.77;;;3.07;;
34571;SDS011;20808;48.974;8.452;2022-09-29T09:45:45;4.47;;;3.10;;
34571;SDS011;20808;48.974;8.452;2022-09-29T09:48:18;3.00;;;2.70;;
34571;SDS011;20808;48.974;8.452;2022-09-29T09:50:51;6.20;;;3.07;;
34571;SDS011;20808;48.974;8.452;2022-09-29T09:53:18;7.50;;;3.00;;
34571;SDS011;20808;48.974;8.452;2022-09-29T09:55:52;6.73;;;3.20;;
34571;SDS011;20808;48.974;8.452;2022-09-29T09:58:32;10.90;;;3.70;;
34571;SDS011;20808;48.974;8.452;2022-09-29T10:01:16;6.83;;;3.27;;
34571;SDS011;20808;48.974;8.452;2022-09-29T10:03:43;6.10;;;3.20;;
34571;SDS011;20808;48.974;8.452;2022-09-29T10:06:11;7.50;;;3.80;;
34571;SDS011;20808;48.974;8.452;2022-09-29T10:08:38;5.10;;;3.00;;
34571;SDS011;20808;48.974;8.452;2022-09-29T10:11:11;7.90;;;3.47;;
34571;SDS011;20808;48.974;8.452;2022-09-29T10:13:48;4.33;;;3.07;;
34571;SDS011;20808;48.974;8.452;2022-09-29T10:16:23;5.83;;;3.20;;
34571;SDS011;20808;48.974;8.452;2022-09-29T10:18:54;4.83;;;3.10;;
34571;SDS011;20808;48.974;8.452;2022-09-29T10:21:22;4.93;;;2.93;;
34571;SDS011;20808;48.974;8.452;2022-09-29T10:24:01;6.37;;;3.00;;
34571;SDS011;20808;48.974;8.452;2022-09-29T10:26:31;4.90;;;2.60;;
34571;SDS011;20808;48.974;8.452;2022-09-29T10:29:01;4.87;;;2.70;;
34571;SDS011;20808;48.974;8.452;2022-09-29T10:31:42;9.53;;;2.83;;
34571;SDS011;20808;48.974;8.452;2022-09-29T10:34:22;5.37;;;2.87;;
34571;SDS011;20808;48.974;8.452;2022-09-29T10:36:52;6.67;;;2.83;;
34571;SDS011;20808;48.974;8.452;2022-09-29T10:39:32;4.87;;;2.40;;
34571;SDS011;20808;48.974;8.452;2022-09-29T10:42:04;4.90;;;3.00;;
34571;SDS011;20808;48.974;8.452;2022-09-29T10:44:41;4.80;;;2.90;;
34571;SDS011;20808;48.974;8.452;2022-09-29T10:47:14;6.60;;;2.87;;
34571;SDS011;20808;48.974;8.452;2022-09-29T10:49:41;6.50;;;2.53;;
34571;SDS011;20808;48.974;8.452;2022-09-29T10:52:16;5.70;;;2.60;;
34571;SDS011;20808;48.974;8.452;2022-09-29T10:54:52;10.00;;;3.00;;
34571;SDS011;20808;48.974;8.452;2022-09-29T10:57:23;3.73;;;2.97;;
34571;SDS011;20808;48.974;8.452;2022-09-29T10:59:52;4.43;;;2.70;;
34571;SDS011;20808;48.974;8.452;2022-09-29T11:02:21;5.37;;;2.57;;
34571;SDS011;20808;48.974;8.452;2022-09-29T11:04:52;5.47;;;3.40;;
34571;SDS011;20808;48.974;8.452;2022-09-29T11:07:24;6.77;;;4.23;;
34571;SDS011;20808;48.974;8.452;2022-09-29T11:09:51;9.53;;;4.37;;
34571;SDS011;20808;48.974;8.452;2022-09-29T11:12:24;6.10;;;3.60;;
34571;SDS011;20808;48.974;8.452;2022-09-29T11:14:56;8.30;;;3.47;;
34571;SDS011;20808;48.974;8.452;2022-09-29T11:17:23;6.90;;;3.37;;
34571;SDS011;20808;48.974;8.452;2022-09-29T11:19:52;5.20;;;3.20;;
34571;SDS011;20808;48.974;8.452;2022-09-29T11:28:24;7.63;;;2.30;;
34571;SDS011;20808;48.974;8.452;2022-09-29T11:31:08;4.60;;;2.70;;
34571;SDS011;20808;48.974;8.452;2022-09-29T11:33:56;4.90;;;2.57;;
34571;SDS011;20808;48.974;8.452;2022-09-29T11:36:40;7.63;;;2.70;;
34571;SDS011;20808;48.974;8.452;2022-09-29T11:39:18;14.70;;;2.50;;
34571;SDS011;20808;48.974;8.452;2022-09-29T11:41:58;3.33;;;2.60;;
34571;SDS011;20808;48.974;8.452;2022-09-29T11:47:34;5.30;;;3.50;;
34571;SDS011;20808;48.974;8.452;2022-09-29T11:50:20;11.10;;;3.60;;
34571;SDS011;20808;48.974;8.452;2022-09-29T11:55:50;7.50;;;3.57;;
34571;SDS011;20808;48.974;8.452;2022-09-29T11:58:30;9.00;;;3.83;;
34571;SDS011;20808;48.974;8.452;2022-09-29T12:01:14;6.40;;;3.70;;
34571;SDS011;20808;48.974;8.452;2022-09-29T12:04:09;6.23;;;3.73;;
34571;SDS011;20808;48.974;8.452;2022-09-29T12:06:53;6.90;;;3.70;;
34571;SDS011;20808;48.974;8.452;2022-09-29T12:09:25;4.40;;;3.17;;
34571;SDS011;20808;48.974;8.452;2022-09-29T12:12:04;5.90;;;4.37;;
34571;SDS011;20808;48.974;8.452;2022-09-29T12:14:42;5.70;;;4.10;;
34571;SDS011;20808;48.974;8.452;2022-09-29T12:17:19;5.87;;;3.30;;
34571;SDS011;20808;48.974;8.452;2022-09-29T12:19:55;8.33;;;4.53;;
34571;SDS011;20808;48.974;8.452;2022-09-29T12:22:30;7.50;;;3.57;;
34571;SDS011;20808;48.974;8.452;2022-09-29T12:24:59;5.73;;;3.17;;
34571;SDS011;20808;48.974;8.452;2022-09-29T12:27:33;9.83;;;2.67;;
34571;SDS011;20808;48.974;8.452;2022-09-29T12:30:03;5.47;;;2.37;;
34571;SDS011;20808;48.974;8.452;2022-09-29T12:32:41;7.87;;;3.00;;
34571;SDS011;20808;48.974;8.452;2022-09-29T12:35:14;4.37;;;3.13;;
34571;SDS011;20808;48.974;8.452;2022-09-29T12:37:45;4.50;;;2.70;;
34571;SDS011;20808;48.974;8.452;2022-09-29T12:40:19;5.17;;;2.70;;
34571;SDS011;20808;48.974;8.452;2022-09-29T12:43:06;5.90;;;2.93;;
34571;SDS011;20808;48.974;8.452;2022-09-29T12:45:41;6.47;;;3.40;;
34571;SDS011;20808;48.974;8.452;2022-09-29T12:48:16;9.97;;;3.50;;
34571;SDS011;20808;48.974;8.452;2022-09-29T12:50:53;5.63;;;3.40;;
34571;SDS011;20808;48.974;8.452;2022-09-29T12:53:28;7.50;;;3.37;;
34571;SDS011;20808;48.974;8.452;2022-09-29T12:56:00;6.57;;;3.67;;
34571;SDS011;20808;48.974;8.452;2022-09-29T12:58:33;7.27;;;3.57;;
34571;SDS011;20808;48.974;8.452;2022-09-29T13:01:09;8.37;;;3.47;;
34571;SDS011;20808;48.974;8.452;2022-09-29T13:13:04;11.00;;;4.20;;
34571;SDS011;20808;48.974;8.452;2022-09-29T13:16:08;14.20;;;3.50;;
34571;SDS011;20808;48.974;8.452;2022-09-29T13:18:48;12.80;;;3.40;;
34571;SDS011;20808;48.974;8.452;2022-09-29T13:21:45;8.87;;;3.80;;
34571;SDS011;20808;48.974;8.452;2022-09-29T13:24:27;9.80;;;3.80;;
34571;SDS011;20808;48.974;8.452;2022-09-29T13:29:50;8.40;;;3.77;;
34571;SDS011;20808;48.974;8.452;2022-09-29T13:32:21;10.00;;;4.07;;
34571;SDS011;20808;48.974;8.452;2022-09-29T13:34:51;12.50;;;4.50;;
34571;SDS011;20808;48.974;8.452;2022-09-29T13:37:21;7.00;;;3.50;;
34571;SDS011;20808;48.974;8.452;2022-09-29T13:39:52;8.30;;;3.00;;
34571;SDS011;20808;48.974;8.452;2022-09-29T13:42:38;5.80;;;2.90;;
34571;SDS011;20808;48.974;8.452;2022-09-29T13:45:14;9.40;;;3.60;;
34571;SDS011;20808;48.974;8.452;2022-09-29T13:51:20;3.50;;;2.00;;
34571;SDS011;20808;48.974;8.452;2022-09-29T13:57:03;4.77;;;2.23;;
34571;SDS011;20808;48.974;8.452;2022-09-29T13:59:59;7.40;;;1.90;;
34571;SDS011;20808;48.974;8.452;2022-09-29T14:02:42;1.80;;;1.37;;
34571;SDS011;20808;48.974;8.452;2022-09-29T14:08:06;2.03;;;1.60;;
34571;SDS011;20808;48.974;8.452;2022-09-29T14:10:41;3.70;;;1.73;;
34571;SDS011;20808;48.974;8.452;2022-09-29T14:13:11;2.57;;;1.40;;
34571;SDS011;20808;48.974;8.452;2022-09-29T14:15:44;2.83;;;1.80;;
34571;SDS011;20808;48.974;8.452;2022-09-29T14:18:16;3.47;;;1.80;;
34571;SDS011;20808;48.974;8.452;2022-09-29T14:21:00;1.47;;;1.30;;
34571;SDS011;20808;48.974;8.452;2022-09-29T14:23:48;4.17;;;1.30;;
34571;SDS011;20808;48.974;8.452;2022-09-29T14:29:15;2.43;;;1.40;;
34571;SDS011;20808;48.974;8.452;2022-09-29T14:31:46;3.10;;;1.50;;
34571;SDS011;20808;48.974;8.452;2022-09-29T14:34:17;2.17;;;1.40;;
34571;SDS011;20808;48.974;8.452;2022-09-29T14:36:49;2.57;;;1.40;;
34571;SDS011;20808;48.974;8.452;2022-09-29T14:39:19;2.30;;;1.40;;
34571;SDS011;20808;48.974;8.452;2022-09-29T14:41:47;2.27;;;1.30;;
34571;SDS011;20808;48.974;8.452;2022-09-29T14:44:17;2.20;;;1.37;;
34571;SDS011;20808;48.974;8.452;2022-09-29T14:50:25;1.50;;;1.20;;
34571;SDS011;20808;48.974;8.452;2022-09-29T14:53:22;3.27;;;1.47;;
34571;SDS011;20808;48.974;8.452;2022-09-29T14:56:04;3.50;;;1.30;;
34571;SDS011;20808;48.974;8.452;2022-09-29T14:58:45;2.00;;;1.50;;
34571;SDS011;20808;48.974;8.452;2022-09-29T15:01:24;3.00;;;1.60;;
34571;SDS011;20808;48.974;8.452;2022-09-29T15:03:53;2.10;;;1.40;;
34571;SDS011;20808;48.974;8.452;2022-09-29T15:06:22;2.53;;;1.47;;
34571;SDS011;20808;48.974;8.452;2022-09-29T15:08:55;2.63;;;1.47;;
34571;SDS011;20808;48.974;8.452;2022-09-29T15:11:32;2.20;;;1.53;;
34571;SDS011;20808;48.974;8.452;2022-09-29T15:14:04;4.90;;;1.40;;
34571;SDS011;20808;48.974;8.452;2022-09-29T15:16:47;2.80;;;1.43;;
34571;SDS011;20808;48.974;8.452;2022-09-29T15:19:25;4.03;;;1.70;;
34571;SDS011;20808;48.974;8.452;2022-09-29T15:22:04;2.30;;;1.27;;
34571;SDS011;20808;48.974;8.452;2022-09-29T15:24:46;3.23;;;1.47;;
34571;SDS011;20808;48.974;8.452;2022-09-29T15:27:24;3.30;;;2.00;;
34571;SDS011;20808;48.974;8.452;2022-09-29T15:29:53;2.90;;;1.80;;
34571;SDS011;20808;48.974;8.452;2022-09-29T15:32:22;4.20;;;1.40;;
34571;SDS011;20808;48.974;8.452;2022-09-29T15:34:50;3.10;;;1.73;;
34571;SDS011;20808;48.974;8.452;2022-09-29T15:37:19;2.70;;;1.50;;
34571;SDS011;20808;48.974;8.452;2022-09-29T15:39:48;2.13;;;1.70;;
34571;SDS011;20808;48.974;8.452;2022-09-29T15:42:18;3.07;;;1.57;;
34571;SDS011;20808;48.974;8.452;2022-09-29T15:44:51;2.63;;;2.20;;
34571;SDS011;20808;48.974;8.452;2022-09-29T15:47:21;3.40;;;2.03;;
34571;SDS011;20808;48.974;8.452;2022-09-29T15:49:52;5.67;;;2.80;;